Time;durP1;ratioP1;P1;durP2;ratioP2;P2;SDS_P1;SDS_P2;PMS_P1;PMS_P2;Temp;Humidity;BMP_temperature;BMP_pressure;BME280_temperature;BME280_humidity;BME280_pressure;Samples;Min_cycle;Max_cycle;Signal;HPM_P1;HPM_P2
2023/11/21 00:01:34;;;;;;;12.50;3.03;;;;;;;6.95;92.42;101660.06;4986127;28;20058;-46
2023/11/21 00:04:01;;;;;;;21.63;3.42;;;;;;;6.94;92.41;101652.91;4987779;28;20043;-46
2023/11/21 00:06:30;;;;;;;21.77;3.70;;;;;;;6.93;92.62;101655.97;4987282;28;20436;-46
2023/11/21 00:08:57;;;;;;;24.42;6.50;;;;;;;6.93;92.67;101662.28;4988769;28;20046;-45
2023/11/21 00:11:25;;;;;;;24.85;3.47;;;;;;;6.92;92.67;101670.84;4987033;28;20417;-46
2023/11/21 00:13:52;;;;;;;11.77;2.80;;;;;;;6.91;92.85;101681.03;4986418;28;20047;-46
2023/11/21 00:16:19;;;;;;;17.73;2.83;;;;;;;6.90;93.02;101675.84;4987818;28;20043;-47
2023/11/21 00:18:47;;;;;;;11.63;2.88;;;;;;;6.90;92.84;101684.09;4969183;28;20058;-46
2023/11/21 00:21:14;;;;;;;11.30;4.35;;;;;;;6.88;93.11;101698.16;4986356;28;20038;-47
2023/11/21 00:23:42;;;;;;;11.73;3.10;;;;;;;6.86;93.11;101691.31;4987186;28;20050;-49
2023/11/21 00:26:10;;;;;;;13.63;2.95;;;;;;;6.85;93.28;101692.41;4990101;28;20035;-47
2023/11/21 00:28:37;;;;;;;20.90;3.28;;;;;;;6.84;93.06;101699.03;4989483;28;20050;-47
2023/11/21 00:31:04;;;;;;;17.23;3.00;;;;;;;6.83;93.52;101697.41;4988302;28;20054;-46
2023/11/21 00:33:32;;;;;;;13.73;2.63;;;;;;;6.80;93.42;101693.31;4988737;28;20046;-47
2023/11/21 00:36:00;;;;;;;12.70;2.63;;;;;;;6.80;93.61;101698.00;4991445;28;20081;-46
2023/11/21 00:38:28;;;;;;;12.73;2.53;;;;;;;6.79;93.62;101699.09;4991298;28;20046;-46
2023/11/21 00:40:56;;;;;;;15.75;3.67;;;;;;;6.78;93.54;101709.28;4990380;28;20934;-46
2023/11/21 00:43:24;;;;;;;14.73;2.67;;;;;;;6.76;93.63;101714.28;4990638;28;20048;-45
2023/11/21 00:45:51;;;;;;;27.30;5.53;;;;;;;6.74;93.75;101709.09;4990910;28;20042;-49
2023/11/21 00:48:19;;;;;;;17.85;2.67;;;;;;;6.72;93.88;101711.28;4989265;28;20043;-47
2023/11/21 00:50:46;;;;;;;14.15;2.78;;;;;;;6.69;93.74;101717.41;4991236;28;20053;-48
2023/11/21 00:53:13;;;;;;;15.40;2.53;;;;;;;6.68;93.72;101713.00;4989250;28;20042;-46
2023/11/21 00:55:41;;;;;;;10.93;2.53;;;;;;;6.66;93.69;101720.75;4991021;28;20038;-46
2023/11/21 00:58:08;;;;;;;22.73;2.97;;;;;;;6.65;93.91;101716.34;4986504;28;20046;-47
2023/11/21 01:00:35;;;;;;;8.52;2.20;;;;;;;6.63;94.13;101718.59;4989691;28;20050;-49
2023/11/21 01:03:02;;;;;;;14.63;2.85;;;;;;;6.62;93.91;101719.69;4990492;28;20050;-47
2023/11/21 01:05:30;;;;;;;6.63;2.17;;;;;;;6.63;94.01;101721.34;4981142;28;20046;-46
2023/11/21 01:07:57;;;;;;;9.02;2.17;;;;;;;6.60;93.88;101713.66;4990702;28;20050;-46
2023/11/21 01:10:24;;;;;;;16.60;3.13;;;;;;;6.58;94.13;101709.56;4989708;28;20054;-52
2023/11/21 01:12:52;;;;;;;16.42;2.40;;;;;;;6.56;94.24;101715.38;4990113;28;20047;-48
2023/11/21 01:15:19;;;;;;;14.23;2.20;;;;;;;6.55;94.14;101713.75;4990550;28;20078;-47
2023/11/21 01:17:47;;;;;;;13.32;2.40;;;;;;;6.56;94.12;101709.88;4990583;28;20039;-47
2023/11/21 01:20:15;;;;;;;12.18;2.53;;;;;;;6.57;94.20;101729.94;4988590;28;20050;-48
2023/11/21 01:22:42;;;;;;;13.70;2.15;;;;;;;6.55;94.13;101727.50;4976879;28;20377;-49
2023/11/21 01:25:11;;;;;;;14.35;3.20;;;;;;;6.54;94.01;101736.84;4989044;28;20054;-48
2023/11/21 01:27:38;;;;;;;10.95;2.20;;;;;;;6.54;93.91;101750.59;4990481;28;20050;-47
2023/11/21 01:30:07;;;;;;;19.58;3.08;;;;;;;6.54;93.95;101767.09;4969448;28;20047;-46
2023/11/21 01:32:35;;;;;;;8.52;2.65;;;;;;;6.55;93.95;101759.69;4989208;28;20058;-46
2023/11/21 01:35:05;;;;;;;10.95;1.80;;;;;;;6.55;93.97;101759.69;4990680;28;20050;-49
2023/11/21 01:37:33;;;;;;;17.60;2.65;;;;;;;6.54;93.74;101764.34;4976125;28;20391;-47
2023/11/21 01:40:01;;;;;;;6.57;1.88;;;;;;;6.53;93.65;101768.25;4990288;28;20046;-52
2023/11/21 01:42:29;;;;;;;13.57;2.63;;;;;;;6.53;93.68;101772.91;4989263;28;20134;-48
2023/11/21 01:44:56;;;;;;;11.50;2.22;;;;;;;6.51;93.72;101775.16;4970606;28;20077;-48
2023/11/21 01:47:23;;;;;;;6.07;1.48;;;;;;;6.50;93.90;101779.81;4989682;28;20058;-48
2023/11/21 01:49:51;;;;;;;10.63;2.22;;;;;;;6.49;93.83;101791.94;4990107;28;20057;-46
2023/11/21 01:52:19;;;;;;;7.05;2.17;;;;;;;6.48;93.75;101793.06;4989359;28;20046;-52
2023/11/21 01:54:47;;;;;;;15.52;2.42;;;;;;;6.48;94.01;101806.00;4989157;28;20046;-47
2023/11/21 01:57:15;;;;;;;9.98;2.55;;;;;;;6.48;93.95;101815.06;4990061;28;20050;-46
2023/11/21 01:59:45;;;;;;;15.10;2.28;;;;;;;6.45;94.11;101804.66;4989560;28;20042;-49
2023/11/21 02:02:13;;;;;;;13.48;2.97;;;;;;;6.42;94.18;101807.97;4989860;28;20054;-47
2023/11/21 02:04:40;;;;;;;14.07;3.00;;;;;;;6.40;94.22;101804.69;4989480;28;20050;-46
2023/11/21 02:07:08;;;;;;;11.02;2.50;;;;;;;6.38;94.14;101806.91;4990057;28;20050;-46
2023/11/21 02:09:38;;;;;;;17.65;3.30;;;;;;;6.37;94.12;101820.97;4989231;28;20050;-47
2023/11/21 02:12:05;;;;;;;9.48;2.70;;;;;;;6.34;94.26;101814.09;4989810;28;20042;-46
2023/11/21 02:14:33;;;;;;;10.75;2.13;;;;;;;6.32;94.09;101818.25;4988761;28;20046;-49
2023/11/21 02:17:01;;;;;;;15.82;2.50;;;;;;;6.32;94.43;101824.59;4989992;28;20054;-46
2023/11/21 02:19:29;;;;;;;15.07;3.60;;;;;;;6.28;94.22;101815.25;4989395;28;20643;-46
2023/11/21 02:22:00;;;;;;;7.63;2.28;;;;;;;6.26;94.24;101827.66;4990325;28;20523;-48
2023/11/21 02:24:28;;;;;;;14.82;3.38;;;;;;;6.23;94.61;101822.75;4989181;28;20412;-47
2023/11/21 02:26:56;;;;;;;13.35;2.83;;;;;;;6.23;94.66;101811.75;4988670;28;20054;-46
2023/11/21 02:29:27;;;;;;;18.23;2.17;;;;;;;6.22;94.54;101810.94;4990306;28;20046;-46
2023/11/21 02:31:55;;;;;;;9.32;2.00;;;;;;;6.22;94.59;101810.94;4988679;28;20571;-46
2023/11/21 02:34:24;;;;;;;11.30;3.35;;;;;;;6.22;94.32;101816.44;4976272;28;20046;-52
2023/11/21 02:36:53;;;;;;;10.15;2.95;;;;;;;6.21;94.43;101817.53;4989433;28;20066;-47
2023/11/21 02:39:24;;;;;;;14.20;2.25;;;;;;;6.18;94.52;101825.53;4988478;28;20608;-46
2023/11/21 02:41:52;;;;;;;12.10;1.98;;;;;;;6.16;94.77;101839.59;4988376;28;20054;-49
2023/11/21 02:44:19;;;;;;;8.32;2.03;;;;;;;6.13;94.61;101835.50;4988879;28;20054;-48
2023/11/21 02:46:46;;;;;;;12.02;2.53;;;;;;;6.12;94.69;101842.09;4988736;28;20151;-48
2023/11/21 02:49:14;;;;;;;21.08;6.13;;;;;;;6.10;94.60;101838.81;4988920;28;20077;-47
2023/11/21 02:51:42;;;;;;;14.88;2.45;;;;;;;6.10;94.70;101847.06;4988497;28;20046;-49
2023/11/21 02:54:09;;;;;;;12.30;1.77;;;;;;;6.10;94.66;101847.06;4988374;28;20050;-49
2023/11/21 02:56:37;;;;;;;17.65;3.10;;;;;;;6.11;94.57;101870.72;4988009;28;20049;-50
2023/11/21 02:59:04;;;;;;;10.52;3.22;;;;;;;6.11;94.64;101853.38;4963075;28;20057;-48
2023/11/21 03:01:32;;;;;;;11.95;2.40;;;;;;;6.11;94.65;101880.88;5121056;22;20064;-48
2023/11/21 03:04:01;;;;;;;9.55;1.90;;;;;;;6.07;94.86;101882.53;5047855;28;20119;-46
2023/11/21 03:06:29;;;;;;;7.53;1.90;;;;;;;6.08;94.58;101889.69;5046911;28;20514;-47
2023/11/21 03:08:56;;;;;;;4.50;1.65;;;;;;;6.05;94.84;101890.28;5047571;28;20097;-46
2023/11/21 03:11:23;;;;;;;8.57;2.40;;;;;;;6.02;94.88;101888.09;5047016;28;20520;-45
2023/11/21 03:13:50;;;;;;;7.60;1.85;;;;;;;6.03;94.93;101896.06;5047129;28;20049;-46
2023/11/21 03:16:19;;;;;;;8.30;1.80;;;;;;;6.04;94.87;101897.69;5046712;28;20047;-46
2023/11/21 03:18:46;;;;;;;15.32;1.95;;;;;;;6.02;94.79;101891.66;5046760;28;20037;-47
2023/11/21 03:21:14;;;;;;;9.85;1.83;;;;;;;6.02;94.90;101893.59;5045892;28;20045;-46
2023/11/21 03:23:41;;;;;;;10.93;1.67;;;;;;;6.02;95.08;101888.09;5044924;28;20090;-48
2023/11/21 03:26:12;;;;;;;10.45;1.85;;;;;;;6.01;94.93;101883.72;5047503;28;20053;-46
2023/11/21 03:28:40;;;;;;;10.25;2.10;;;;;;;6.00;94.76;101891.13;5046082;28;20041;-46
2023/11/21 03:31:08;;;;;;;27.52;2.42;;;;;;;6.02;95.04;101890.84;5047202;28;20399;-46
2023/11/21 03:33:36;;;;;;;12.95;3.97;;;;;;;5.99;95.01;101894.16;5045627;28;20037;-47
2023/11/21 03:36:04;;;;;;;12.02;1.98;;;;;;;5.99;94.89;101903.22;5047210;28;20060;-48
2023/11/21 03:38:31;;;;;;;14.82;2.97;;;;;;;5.98;94.82;101914.53;5041287;28;20757;-45
2023/11/21 03:40:58;;;;;;;10.77;3.38;;;;;;;5.96;95.21;101914.78;5046238;28;20044;-48
2023/11/21 03:43:26;;;;;;;5.20;1.35;;;;;;;5.96;94.98;101923.03;5046873;28;20052;-52
2023/11/21 03:45:54;;;;;;;8.13;1.85;;;;;;;5.93;94.85;101922.81;5046869;28;20372;-48
2023/11/21 03:48:21;;;;;;;13.27;2.53;;;;;;;5.93;95.05;101922.81;5046405;28;20049;-46
2023/11/21 03:50:48;;;;;;;7.88;1.63;;;;;;;5.92;95.09;101926.66;5046727;28;20399;-46
2023/11/21 03:53:15;;;;;;;6.00;1.42;;;;;;;5.89;95.16;101922.53;5046535;28;20041;-47
2023/11/21 03:55:43;;;;;;;10.40;1.55;;;;;;;5.86;95.21;101930.53;5046250;28;20048;-45
2023/11/21 03:58:10;;;;;;;15.82;2.38;;;;;;;5.85;95.28;101920.66;5046214;28;20434;-48
2023/11/21 04:00:37;;;;;;;5.97;1.60;;;;;;;5.84;95.36;101929.97;5043684;28;20625;-46
2023/11/21 04:03:05;;;;;;;15.80;1.80;;;;;;;5.81;95.34;101919.53;5028340;28;20498;-45
2023/11/21 04:05:32;;;;;;;10.68;2.60;;;;;;;5.80;95.64;101924.22;5028857;28;20044;-45
2023/11/21 04:07:59;;;;;;;16.17;3.15;;;;;;;5.81;95.52;101930.53;5045489;28;20048;-46
2023/11/21 04:10:27;;;;;;;13.10;2.00;;;;;;;5.78;95.62;101926.44;5046204;28;20406;-46
2023/11/21 04:12:54;;;;;;;12.93;1.95;;;;;;;5.77;95.58;101927.53;5045962;28;20056;-46
2023/11/21 04:15:21;;;;;;;7.70;2.80;;;;;;;5.76;95.83;101930.56;5045855;28;20037;-45
2023/11/21 04:17:49;;;;;;;12.60;2.83;;;;;;;5.72;95.88;101935.81;5045773;28;20048;-47
2023/11/21 04:20:16;;;;;;;14.52;2.28;;;;;;;5.71;95.63;101944.34;5045832;28;20112;-46
2023/11/21 04:22:44;;;;;;;9.98;2.92;;;;;;;5.67;95.88;101946.81;5045875;28;20033;-45
2023/11/21 04:25:14;;;;;;;13.32;3.08;;;;;;;5.66;95.94;101947.13;5046388;28;20851;-49
2023/11/21 04:27:43;;;;;;;13.27;1.77;;;;;;;5.66;96.26;101944.38;5045916;28;20486;-46
2023/11/21 04:30:12;;;;;;;15.18;2.67;;;;;;;5.64;95.93;101943.84;5046149;28;20049;-46
2023/11/21 04:32:40;;;;;;;10.80;1.85;;;;;;;5.64;96.46;101946.59;5046391;28;20048;-45
2023/11/21 04:35:09;;;;;;;7.90;1.63;;;;;;;5.62;96.39;101944.09;5042636;28;20047;-47
2023/11/21 04:37:36;;;;;;;13.05;3.03;;;;;;;5.60;96.26;101951.81;5046453;28;20057;-49
2023/11/21 04:40:06;;;;;;;13.30;2.47;;;;;;;5.62;96.32;101946.03;5044748;28;20052;-49
2023/11/21 04:42:36;;;;;;;9.25;1.95;;;;;;;5.61;96.37;101949.91;5046320;28;20041;-46
2023/11/21 04:45:08;;;;;;;10.45;2.10;;;;;;;5.60;96.55;101962.81;5045644;28;20049;-48
2023/11/21 04:47:36;;;;;;;8.90;1.67;;;;;;;5.61;96.61;101958.13;5028319;28;20041;-45
2023/11/21 04:50:05;;;;;;;11.38;1.52;;;;;;;5.61;96.70;101963.63;5045833;28;20056;-45
2023/11/21 04:52:33;;;;;;;8.82;1.88;;;;;;;5.62;96.67;101970.75;5027306;28;20037;-46
2023/11/21 04:55:01;;;;;;;6.07;1.75;;;;;;;5.62;96.79;101976.25;5046213;28;20044;-46
2023/11/21 04:57:29;;;;;;;9.45;2.15;;;;;;;5.62;96.62;101984.47;5046316;28;20045;-46
2023/11/21 04:59:56;;;;;;;13.52;1.75;;;;;;;5.62;96.71;101981.75;5045333;28;20045;-48
2023/11/21 05:02:23;;;;;;;6.75;1.70;;;;;;;5.61;96.81;101980.94;5044971;28;20061;-48
2023/11/21 05:05:02;;;;;;;14.48;2.38;;;;;;;5.61;96.83;101996.59;5045432;28;20049;-47
2023/11/21 05:07:30;;;;;;;8.35;1.73;;;;;;;5.63;97.09;102005.38;5039459;28;20411;-45
2023/11/21 05:09:58;;;;;;;8.77;1.85;;;;;;;5.61;96.93;102007.59;5045151;28;20056;-45
2023/11/21 05:12:26;;;;;;;14.35;2.38;;;;;;;5.59;96.85;102018.03;5048370;28;20056;-46
2023/11/21 05:14:54;;;;;;;13.80;2.03;;;;;;;5.57;97.19;102012.81;5049518;28;20057;-46
2023/11/21 05:17:22;;;;;;;8.52;2.15;;;;;;;5.56;97.11;102010.34;5048813;28;20567;-46
2023/11/21 05:19:49;;;;;;;13.13;2.95;;;;;;;5.54;97.06;102014.19;5043718;28;20033;-46
2023/11/21 05:22:18;;;;;;;6.38;2.40;;;;;;;5.53;97.43;102011.75;5048299;28;20048;-47
2023/11/21 05:24:45;;;;;;;6.65;1.30;;;;;;;5.54;97.44;102013.38;5049454;28;20041;-49
2023/11/21 05:27:12;;;;;;;8.65;2.00;;;;;;;5.54;97.36;102019.69;5049407;28;20045;-45
2023/11/21 05:29:40;;;;;;;12.95;3.75;;;;;;;5.57;97.57;102031.22;5048710;28;20052;-46
2023/11/21 05:32:07;;;;;;;15.88;3.65;;;;;;;5.56;97.61;102040.56;5048997;28;20576;-46
2023/11/21 05:34:34;;;;;;;11.65;2.08;;;;;;;5.56;97.68;102037.81;5048850;28;20041;-45
2023/11/21 05:37:02;;;;;;;16.30;2.88;;;;;;;5.56;97.51;102048.81;5048914;28;20049;-46
2023/11/21 05:39:29;;;;;;;11.05;1.92;;;;;;;5.57;97.58;102047.69;5049432;28;20403;-45
2023/11/21 05:41:57;;;;;;;10.25;1.85;;;;;;;5.58;97.88;102057.59;5048728;28;20041;-47
2023/11/21 05:44:25;;;;;;;10.30;2.17;;;;;;;5.58;97.82;102065.84;5048895;28;20507;-45
2023/11/21 05:46:52;;;;;;;11.20;1.80;;;;;;;5.59;97.90;102059.25;5049697;28;20143;-48
2023/11/21 05:49:22;;;;;;;9.75;1.55;;;;;;;5.60;97.60;102058.13;5047291;28;20052;-46
2023/11/21 05:51:50;;;;;;;7.03;2.35;;;;;;;5.61;97.65;102057.03;5048738;28;20049;-46
2023/11/21 05:54:17;;;;;;;10.82;2.10;;;;;;;5.62;97.96;102064.16;5049590;28;20049;-46
2023/11/21 05:56:44;;;;;;;8.38;1.95;;;;;;;5.60;97.72;102069.13;5048364;28;20056;-46
2023/11/21 05:59:11;;;;;;;10.30;1.80;;;;;;;5.60;97.69;102069.94;5048649;28;20406;-46
2023/11/21 06:01:39;;;;;;;15.23;1.80;;;;;;;5.61;97.61;102063.34;5048389;28;20053;-46
2023/11/21 06:04:08;;;;;;;13.88;2.17;;;;;;;5.60;97.79;102074.59;5049888;28;20451;-46
2023/11/21 06:06:36;;;;;;;13.88;2.03;;;;;;;5.60;97.72;102077.34;5049673;28;20053;-45
2023/11/21 06:09:03;;;;;;;8.13;1.83;;;;;;;5.59;97.94;102075.72;5041707;28;20037;-46
2023/11/21 06:11:31;;;;;;;13.48;1.70;;;;;;;5.58;97.96;102068.56;5047970;28;20048;-45
2023/11/21 06:13:59;;;;;;;7.72;1.58;;;;;;;5.59;97.96;102076.53;5048574;28;20041;-46
2023/11/21 06:16:27;;;;;;;17.25;2.20;;;;;;;5.58;98.13;102071.31;5047904;28;20037;-46
2023/11/21 06:18:55;;;;;;;10.27;2.30;;;;;;;5.57;97.77;102072.41;5048242;28;20059;-45
2023/11/21 06:21:22;;;;;;;8.95;1.70;;;;;;;5.56;98.08;102079.81;5036007;28;20509;-46
2023/11/21 06:23:49;;;;;;;12.00;1.75;;;;;;;5.58;98.33;102079.56;5047748;28;20045;-46
2023/11/21 06:26:20;;;;;;;9.85;2.42;;;;;;;5.58;98.33;102080.41;5048083;28;20056;-47
2023/11/21 06:28:51;;;;;;;12.60;2.08;;;;;;;5.59;98.32;102076.53;5048269;28;20064;-47
2023/11/21 06:31:18;;;;;;;10.35;1.85;;;;;;;5.58;98.20;102079.56;5038685;28;20104;-46
2023/11/21 06:33:46;;;;;;;6.75;1.55;;;;;;;5.59;98.21;102075.72;5048591;28;20041;-46
2023/11/21 06:36:13;;;;;;;10.55;2.03;;;;;;;5.60;98.07;102077.34;5047826;28;20548;-46
2023/11/21 06:38:41;;;;;;;7.10;1.67;;;;;;;5.57;98.24;102084.22;5047734;28;20053;-46
2023/11/21 06:41:08;;;;;;;7.93;1.80;;;;;;;5.59;98.29;102092.22;5047125;28;20048;-46
2023/11/21 06:43:35;;;;;;;9.23;1.45;;;;;;;5.58;98.26;102093.31;5044585;28;20060;-45
2023/11/21 06:46:04;;;;;;;7.75;1.90;;;;;;;5.59;98.17;102103.19;5037860;28;20060;-46
2023/11/21 06:48:31;;;;;;;10.90;1.50;;;;;;;5.56;98.06;102095.50;5048077;28;20052;-45
2023/11/21 06:50:59;;;;;;;13.27;2.10;;;;;;;5.50;98.10;102106.50;5046981;28;20053;-46
2023/11/21 06:53:26;;;;;;;11.27;2.53;;;;;;;5.50;98.26;102101.03;5045757;28;20037;-47
2023/11/21 06:55:53;;;;;;;10.60;1.90;;;;;;;5.46;98.35;102099.91;5047895;28;20045;-46
2023/11/21 06:58:20;;;;;;;7.93;2.10;;;;;;;5.45;98.26;102112.00;5047272;28;20041;-46
2023/11/21 07:00:50;;;;;;;8.00;1.75;;;;;;;5.44;98.48;102109.53;5046612;28;20047;-48
2023/11/21 07:03:19;;;;;;;8.10;1.88;;;;;;;5.40;98.64;102120.25;5045655;28;20410;-49
2023/11/21 07:05:47;;;;;;;11.98;1.98;;;;;;;5.38;98.56;102125.19;5043904;28;20048;-46
2023/11/21 07:08:15;;;;;;;12.05;1.90;;;;;;;5.38;98.78;102133.44;5047594;28;20048;-45
2023/11/21 07:10:43;;;;;;;13.32;2.85;;;;;;;5.36;98.42;102140.31;5046791;28;20049;-46
2023/11/21 07:13:12;;;;;;;9.50;1.73;;;;;;;5.34;98.48;102142.50;5047759;28;20486;-45
2023/11/21 07:15:40;;;;;;;12.02;2.28;;;;;;;5.31;98.47;102152.13;5028144;28;20045;-45
2023/11/21 07:18:07;;;;;;;6.22;1.80;;;;;;;5.26;98.60;102160.38;5047498;28;20048;-45
2023/11/21 07:20:35;;;;;;;11.82;1.90;;;;;;;5.21;98.57;102167.78;5046059;28;20049;-52
2023/11/21 07:23:03;;;;;;;11.55;2.92;;;;;;;5.13;98.48;102160.91;5040760;28;20064;-45
2023/11/21 07:25:33;;;;;;;23.15;7.20;;;;;;;5.06;98.64;102165.84;5037270;28;20455;-45
2023/11/21 07:28:00;;;;;;;17.70;4.85;;;;;;;5.03;99.09;102154.59;5043383;28;20056;-45
2023/11/21 07:30:28;;;;;;;9.18;3.50;;;;;;;5.00;99.27;102153.22;5044904;28;20437;-45
2023/11/21 07:32:55;;;;;;;17.40;4.10;;;;;;;4.98;99.23;102169.13;5029491;28;20053;-45
2023/11/21 07:35:22;;;;;;;11.55;1.63;;;;;;;4.95;99.11;102183.38;5046140;28;20414;-48
2023/11/21 07:37:50;;;;;;;8.75;1.90;;;;;;;4.96;99.46;102185.06;5046156;28;20410;-45
2023/11/21 07:40:17;;;;;;;11.07;1.95;;;;;;;4.96;99.46;102185.06;5046521;28;20052;-45
2023/11/21 07:42:45;;;;;;;10.27;2.47;;;;;;;4.93;99.09;102185.59;5040839;28;20076;-47
2023/11/21 07:45:13;;;;;;;8.02;2.08;;;;;;;4.92;99.28;102178.47;5042752;28;20084;-49
2023/11/21 07:47:40;;;;;;;12.27;1.88;;;;;;;4.88;99.28;102180.94;5046585;28;20730;-45
2023/11/21 07:50:08;;;;;;;19.70;4.85;;;;;;;4.87;99.18;102186.69;5046780;28;20045;-45
2023/11/21 07:52:36;;;;;;;13.52;3.22;;;;;;;4.85;99.13;102191.63;5046897;28;20057;-47
2023/11/21 07:55:04;;;;;;;15.10;4.95;;;;;;;4.84;99.18;102200.97;5046206;28;20060;-46
2023/11/21 07:57:31;;;;;;;14.30;4.95;;;;;;;4.80;99.09;102205.31;5047166;28;20060;-49
2023/11/21 07:59:58;;;;;;;17.58;5.15;;;;;;;4.79;99.07;102209.19;5046783;28;20056;-45
2023/11/21 08:02:27;;;;;;;10.57;2.75;;;;;;;4.74;99.10;102200.91;5046256;28;20454;-45
2023/11/21 08:04:56;;;;;;;12.73;2.42;;;;;;;4.67;99.26;102206.66;5035011;28;20045;-46
2023/11/21 08:07:24;;;;;;;13.23;2.80;;;;;;;4.64;99.25;102218.19;5038199;28;20045;-45
2023/11/21 08:09:52;;;;;;;12.75;2.60;;;;;;;4.62;99.50;102208.56;5045714;28;20041;-46
2023/11/21 08:12:20;;;;;;;7.22;2.40;;;;;;;4.63;99.71;102211.03;5043819;28;20056;-48
2023/11/21 08:14:47;;;;;;;12.02;2.35;;;;;;;4.63;99.63;102210.22;5027196;28;20593;-50
2023/11/21 08:17:14;;;;;;;12.35;2.88;;;;;;;4.65;99.75;102224.50;5032432;28;20046;-45
2023/11/21 08:19:46;;;;;;;11.35;2.70;;;;;;;4.67;99.67;102233.28;5037253;28;20067;-48
2023/11/21 08:22:17;;;;;;;12.43;2.67;;;;;;;4.70;99.58;102232.75;5027155;28;20550;-51
2023/11/21 08:24:46;;;;;;;14.40;2.97;;;;;;;4.70;99.75;102235.47;5045109;28;20052;-45
2023/11/21 08:27:15;;;;;;;8.65;2.13;;;;;;;4.70;99.81;102236.31;5045023;28;20680;-47
2023/11/21 08:29:43;;;;;;;11.20;3.05;;;;;;;4.69;99.87;102226.41;5045904;28;20045;-45
2023/11/21 08:32:10;;;;;;;10.52;2.42;;;;;;;4.69;99.87;102231.06;5044495;28;20052;-45
2023/11/21 08:34:39;;;;;;;11.25;2.70;;;;;;;4.72;99.83;102236.84;5045102;28;20045;-47
2023/11/21 08:37:07;;;;;;;17.52;2.58;;;;;;;4.73;99.70;102232.19;5043988;28;20041;-45
2023/11/21 08:39:37;;;;;;;12.15;1.90;;;;;;;4.75;99.85;102236.31;5043777;28;20075;-45
2023/11/21 08:42:04;;;;;;;11.55;2.70;;;;;;;4.83;100.00;102248.69;5043646;28;20060;-45
2023/11/21 08:44:32;;;;;;;10.60;2.67;;;;;;;4.87;99.85;102255.31;5043531;28;20075;-52
2023/11/21 08:46:59;;;;;;;15.02;3.75;;;;;;;4.89;100.00;102264.06;5046023;28;20045;-45
2023/11/21 08:49:29;;;;;;;18.20;4.10;;;;;;;4.92;100.00;102263.53;5047778;28;20610;-46
2023/11/21 08:51:59;;;;;;;10.45;2.22;;;;;;;4.95;99.89;102270.41;5044751;28;20052;-45
2023/11/21 08:54:26;;;;;;;10.48;3.20;;;;;;;4.95;99.76;102257.50;5048182;28;20067;-47
2023/11/21 08:56:54;;;;;;;12.65;2.65;;;;;;;4.97;100.00;102269.03;5047626;28;20072;-45
2023/11/21 08:59:24;;;;;;;11.50;2.63;;;;;;;5.00;100.00;102282.22;5048902;28;20049;-45
2023/11/21 09:01:51;;;;;;;10.77;3.25;;;;;;;5.04;99.87;102294.31;5047562;28;20052;-46
2023/11/21 09:04:18;;;;;;;12.82;2.90;;;;;;;5.09;99.89;102297.06;5048327;28;20666;-45
2023/11/21 09:06:45;;;;;;;11.98;2.92;;;;;;;5.15;100.00;102295.16;5048067;28;20447;-45
2023/11/21 09:09:13;;;;;;;18.23;2.55;;;;;;;5.16;100.00;102296.81;5047656;28;20786;-45
2023/11/21 09:11:41;;;;;;;12.88;3.28;;;;;;;5.17;100.00;102293.78;5040927;28;20052;-45
2023/11/21 09:14:09;;;;;;;9.98;2.70;;;;;;;5.18;99.89;102295.44;5048217;28;20418;-45
2023/11/21 09:16:38;;;;;;;14.63;3.72;;;;;;;5.18;99.96;102292.69;5047080;28;20045;-46
2023/11/21 09:19:06;;;;;;;11.88;3.42;;;;;;;5.21;99.89;102280.34;5046219;28;20414;-45
2023/11/21 09:21:34;;;;;;;12.60;3.22;;;;;;;5.25;100.00;102279.53;5046935;28;20052;-46
2023/11/21 09:24:02;;;;;;;9.00;2.83;;;;;;;5.32;100.00;102280.06;5048189;28;20060;-45
2023/11/21 09:26:30;;;;;;;9.60;2.20;;;;;;;5.38;100.00;102283.66;5047367;28;20057;-46
2023/11/21 09:28:57;;;;;;;9.23;2.65;;;;;;;5.44;100.00;102302.63;5046633;28;20412;-45
2023/11/21 09:31:25;;;;;;;10.15;2.03;;;;;;;5.49;99.96;102313.59;5047843;28;20045;-45
2023/11/21 09:33:52;;;;;;;13.70;3.38;;;;;;;5.56;99.94;102318.81;5047459;28;20063;-46
2023/11/21 09:36:21;;;;;;;16.10;3.15;;;;;;;5.59;100.00;102306.50;5046335;28;20041;-48
2023/11/21 09:38:49;;;;;;;10.35;2.72;;;;;;;5.63;99.80;102304.81;5045022;28;20052;-45
2023/11/21 09:41:39;;;;;;;10.98;2.70;;;;;;;5.65;99.85;102300.72;5042608;28;20052;-45
2023/11/21 09:44:11;;;;;;;11.27;2.50;;;;;;;5.69;99.97;102293.56;5046973;28;20045;-45
2023/11/21 09:46:41;;;;;;;11.45;2.00;;;;;;;5.73;99.93;102302.06;5046806;28;20056;-46
2023/11/21 09:49:12;;;;;;;10.18;2.58;;;;;;;5.76;99.87;102302.38;5047466;28;20041;-45
2023/11/21 09:51:43;;;;;;;7.60;1.55;;;;;;;5.81;99.86;102298.78;5046572;28;20052;-47
2023/11/21 09:54:11;;;;;;;13.77;2.55;;;;;;;5.84;99.81;102300.97;5047530;28;20037;-45
2023/11/21 09:56:38;;;;;;;11.70;1.85;;;;;;;5.87;99.67;102297.72;5030696;28;20045;-49
2023/11/21 09:59:08;;;;;;;7.80;1.92;;;;;;;5.89;99.66;102287.25;5047053;28;20053;-45
2023/11/21 10:01:37;;;;;;;7.60;1.80;;;;;;;5.92;99.85;102279.28;5046385;28;20064;-48
2023/11/21 10:04:11;;;;;;;12.45;1.85;;;;;;;5.95;99.64;102277.91;5045933;28;20053;-48
2023/11/21 10:06:41;;;;;;;10.43;2.92;;;;;;;5.96;99.78;102279.53;5046700;28;20060;-48
2023/11/21 10:09:13;;;;;;;14.57;3.28;;;;;;;5.96;99.79;102280.38;5047026;28;20048;-45
2023/11/21 10:11:42;;;;;;;8.98;1.88;;;;;;;5.98;99.84;102294.66;5043174;28;20447;-45
2023/11/21 10:14:13;;;;;;;13.68;2.80;;;;;;;6.00;99.89;102288.91;5045103;28;20502;-48
2023/11/21 10:16:44;;;;;;;11.50;2.17;;;;;;;6.02;99.65;102282.03;5047279;28;20045;-45
2023/11/21 10:19:15;;;;;;;6.28;2.80;;;;;;;6.06;99.96;102285.84;5044693;28;20056;-45
2023/11/21 10:21:43;;;;;;;4.90;2.63;;;;;;;6.11;99.81;102282.28;5046336;28;20041;-46
2023/11/21 10:24:12;;;;;;;8.80;2.20;;;;;;;6.13;99.94;102289.16;5038441;28;20041;-45
2023/11/21 10:26:39;;;;;;;11.90;1.92;;;;;;;6.16;99.96;102301.53;5047083;28;20052;-48
2023/11/21 10:29:21;;;;;;;5.10;1.42;;;;;;;6.20;100.00;102301.78;5046607;28;20103;-52
2023/11/21 10:31:50;;;;;;;9.95;2.17;;;;;;;6.23;99.65;102302.06;5047085;28;20049;-47
2023/11/21 10:34:20;;;;;;;8.82;1.67;;;;;;;6.26;99.75;102293.25;5045856;28;20048;-45
2023/11/21 10:36:48;;;;;;;9.68;1.73;;;;;;;6.30;99.88;102296.28;5047474;28;20414;-49
2023/11/21 10:39:20;;;;;;;14.85;2.15;;;;;;;6.33;99.82;102299.28;5036832;28;20044;-45
2023/11/21 10:41:48;;;;;;;12.27;1.92;;;;;;;6.35;99.69;102294.34;5045168;28;20443;-47
2023/11/21 10:44:20;;;;;;;12.55;2.40;;;;;;;6.40;99.68;102302.56;5046751;28;20808;-45
2023/11/21 10:46:59;;;;;;;8.63;1.90;;;;;;;6.44;99.45;102313.81;5046911;28;20056;-46
2023/11/21 10:49:27;;;;;;;25.90;4.47;;;;;;;6.49;99.79;102316.56;5045773;28;20049;-45
2023/11/21 10:51:56;;;;;;;12.77;4.97;;;;;;;6.52;99.70;102316.84;5046627;28;20045;-45
2023/11/21 10:54:25;;;;;;;17.45;4.18;;;;;;;6.55;99.55;102305.28;5045936;28;20049;-47
2023/11/21 10:57:01;;;;;;;23.40;7.60;;;;;;;6.60;99.70;102309.94;5027936;28;20049;-45
2023/11/21 10:59:31;;;;;;;16.40;6.75;;;;;;;6.63;99.63;102315.69;5042946;28;20061;-45
2023/11/21 11:02:03;;;;;;;11.82;3.15;;;;;;;6.67;99.71;102307.72;5046049;28;20065;-46
2023/11/21 11:04:31;;;;;;;7.50;2.17;;;;;;;6.68;99.75;102315.69;5045417;28;20060;-47
2023/11/21 11:07:03;;;;;;;21.38;3.90;;;;;;;6.71;99.61;102331.63;5028256;28;20045;-47
2023/11/21 11:09:33;;;;;;;9.43;2.95;;;;;;;6.74;99.54;102342.09;5045207;28;20064;-47
2023/11/21 11:12:04;;;;;;;6.35;1.85;;;;;;;6.77;99.81;102339.88;5027524;28;20041;-47
2023/11/21 11:14:32;;;;;;;13.52;3.83;;;;;;;6.81;99.82;102346.44;5045499;28;20037;-45
2023/11/21 11:17:01;;;;;;;11.57;2.33;;;;;;;6.84;99.79;102334.88;5044925;28;20045;-45
2023/11/21 11:19:30;;;;;;;10.48;2.05;;;;;;;6.88;99.67;102328.56;5043871;28;20044;-45
2023/11/21 11:21:57;;;;;;;7.03;2.15;;;;;;;6.92;99.78;102315.84;5045187;28;20056;-47
2023/11/21 11:24:58;;;;;;;6.03;1.63;;;;;;;6.97;99.71;102315.00;5045591;28;20049;-46
2023/11/21 11:27:47;;;;;;;9.73;1.60;;;;;;;7.00;99.69;102326.28;5044576;28;20059;-45
2023/11/21 11:30:28;;;;;;;12.80;2.72;;;;;;;7.05;99.85;102336.44;5039298;28;20522;-49
2023/11/21 11:33:36;;;;;;;13.82;2.15;;;;;;;7.11;99.71;102336.16;5024387;28;20056;-44